• Join FlightAware (Why Join?)
  • Login
  • US Flag 
12:51AM EDT


 

Airport Tracker/Info


-or-


 

Live Flight TrackerFlight Track Log ✈ SWA1969 ✈ 17-Apr-2013 ✈ KMDW - KPHX

Flight Track Log - Related Links

Times and Time Zones

All times are in EDT time to prevent confusion due to time zone crossing. See the SWA1969 flight status page for this flight to view local times or setup timezone preferences in your user account.

Time Position Orientation Groundspeed Altitude Reporting Facility
EDT Latitude Longitude Course Direction KTS MPH feet Rate Location/Type
01:48PM 41.7833 -87.7000 183° South 170 196 2,800  Level Chicago TRACON
01:50PM 41.6472 -87.7097 183° South 245 282 8,300 2,340 Climbing Chicago Center
01:51PM 41.6061 -87.7878 235° Southwest 255 293 11,100 1,860 Climbing Chicago Center
01:52PM 41.5644 -87.8672 235° Southwest 261 300 12,100 1,980 Climbing Chicago Center
01:54PM 41.4889 -88.0117 235° Southwest 232 267 17,300 2,160 Climbing Chicago Center
01:56PM 41.4436 -88.0989 235° Southwest 273 314 18,800 1,500 Climbing Chicago Center
01:57PM 41.3756 -88.1658 216° Southwest 311 358 20,400 1,080 Climbing Chicago Center
01:58PM 41.2856 -88.2089 200° South 347 399 21,100 1,020 Climbing Chicago Center
01:59PM 41.1858 -88.2569 200° South 380 437 22,500 1,380 Climbing Chicago Center
02:00PM 41.0825 -88.3067 200° South 392 451 24,000 1,380 Climbing Chicago Center
02:01PM 40.9811 -88.4097 218° Southwest 406 467 25,400 1,260 Climbing Chicago Center
02:02PM 40.9278 -88.5408 242° Southwest 405 466 26,600 1,020 Climbing Chicago Center
02:03PM 40.8742 -88.6761 242° Southwest 413 475 27,600 900 Climbing Chicago Center
02:04PM 40.8183 -88.8128 242° Southwest 422 486 28,500 780 Climbing Chicago Center
02:05PM 40.7597 -88.9539 241° Southwest 435 501 29,300 960 Climbing Chicago Center
02:06PM 40.7000 -89.0961 241° Southwest 440 506 30,500 1,260 Climbing Chicago Center
02:07PM 40.6417 -89.2389 242° Southwest 442 509 31,900 1,260 Climbing Chicago Center
02:08PM 40.5836 -89.3781 241° Southwest 434 499 33,100 1,020 Climbing Chicago Center
02:09PM 40.5247 -89.5156 241° Southwest 429 494 34,000 420 Climbing Chicago Center
02:10PM 40.4664 -89.6536 241° Southwest 427 491 34,000  Level Chicago Center
02:11PM 40.4089 -89.7908 241° Southwest 425 489 34,000  Level Chicago Center
02:12PM 40.3369 -89.9172 233° Southwest 430 495 34,000  Level Chicago Center
02:13PM 40.2611 -90.0383 231° Southwest 429 494 34,000  Level Chicago Center
02:14PM 40.1853 -90.1600 231° Southwest 431 496 34,000  Level Chicago Center
02:15PM 40.1086 -90.2836 231° Southwest 437 503 34,000  Level Chicago Center
02:16PM 40.0186 -90.4308 231° Southwest 435 501 34,000  Level Chicago Center
02:17PM 39.9450 -90.5553 232° Southwest 432 497 34,000  Level Kansas City Center
02:18PM 39.8564 -90.7011 232° Southwest 429 494 34,000  Level Kansas City Center
02:19PM 39.7828 -90.8247 232° Southwest 430 495 34,000  Level Kansas City Center
02:20PM 39.7183 -90.9356 233° Southwest 430 495 34,000  Level Kansas City Center
02:21PM 39.6311 -91.0847 233° Southwest 433 498 34,000  Level Kansas City Center
02:22PM 39.5583 -91.2108 233° Southwest 437 503 34,000  Level Kansas City Center
02:23PM 39.4872 -91.3389 234° Southwest 439 505 34,000  Level Kansas City Center
02:24PM 39.4131 -91.4664 233° Southwest 443 510 34,000  Level Kansas City Center
02:25PM 39.3392 -91.5944 233° Southwest 445 512 34,000  Level Kansas City Center
02:26PM 39.2553 -91.7389 233° Southwest 446 513 34,000  Level Kansas City Center
02:27PM 39.1881 -91.8606 235° Southwest 446 513 34,000  Level Kansas City Center
02:29PM 39.1017 -92.0206 235° Southwest 451 519 34,000  Level Kansas City Center
02:30PM 39.0286 -92.1508 234° Southwest 451 519 34,000  Level Kansas City Center
02:31PM 38.9581 -92.2878 237° Southwest 455 524 34,000  Level Kansas City Center
02:32PM 38.9033 -92.4319 244° Southwest 450 518 34,000  Level Kansas City Center
02:33PM 38.8539 -92.5811 247° West 451 519 34,000  Level Kansas City Center
02:34PM 38.8106 -92.7350 250° West 456 525 34,000  Level Kansas City Center
02:35PM 38.7550 -92.9181 249° West 458 527 34,000  Level Kansas City Center
02:36PM 38.7089 -93.0700 249° West 459 528 34,000  Level Kansas City Center
02:37PM 38.6642 -93.2219 249° West 458 527 34,000  Level Kansas City Center
02:38PM 38.6183 -93.3739 249° West 459 528 34,000  Level Kansas City Center
02:39PM 38.5717 -93.5233 248° West 456 525 34,000  Level Kansas City Center
02:40PM 38.5264 -93.6725 249° West 453 521 34,000  Level Kansas City Center
02:41PM 38.4722 -93.8503 249° West 450 518 34,000  Level Kansas City Center
02:42PM 38.4264 -93.9969 248° West 447 514 34,000  Level Kansas City Center
02:43PM 38.3792 -94.1436 248° West 444 511 34,000  Level Kansas City Center
02:44PM 38.3375 -94.2794 249° West 438 504 34,000  Level Kansas City Center
02:45PM 38.2886 -94.4364 248° West 433 498 34,000  Level Kansas City Center
02:46PM 38.2589 -94.5736 255° West 425 489 34,000  Level Kansas City Center
02:47PM 38.2367 -94.7161 259° West 428 493 34,000  Level Kansas City Center
02:48PM 38.2083 -94.8833 258° West 425 489 34,000  Level Kansas City Center
02:49PM 38.1811 -95.0203 256° West 425 489 34,000  Level Kansas City Center
02:50PM 38.1481 -95.1831 256° West 425 489 34,000  Level Kansas City Center
02:51PM 38.1200 -95.3214 256° West 422 486 34,000  Level Kansas City Center
02:52PM 38.0778 -95.4775 251° West 419 482 34,000  Level Kansas City Center
02:53PM 38.0300 -95.6058 245° Southwest 418 481 34,000  Level Kansas City Center
02:54PM 37.9756 -95.7556 245° Southwest 418 481 34,000  Level Kansas City Center
02:55PM 37.9275 -95.8833 245° Southwest 416 479 34,000  Level Kansas City Center
02:56PM 37.8781 -96.0158 245° Southwest 417 480 34,000  Level Kansas City Center
02:57PM 37.8256 -96.1575 245° Southwest 412 474 34,000  Level Kansas City Center
02:58PM 37.7767 -96.2847 244° Southwest 405 466 34,000  Level Kansas City Center
02:59PM 37.7292 -96.4114 245° Southwest 401 461 34,000  Level Kansas City Center
03:00PM 37.6561 -96.5136 228° Southwest 393 452 34,000  Level Kansas City Center
03:02PM 37.5806 -96.6131 226° Southwest 392 451 34,000  Level Kansas City Center
03:03PM 37.5061 -96.7125 227° Southwest 390 449 34,000  Level Kansas City Center
03:04PM 37.4181 -96.8303 227° Southwest 386 444 34,000  Level Kansas City Center
03:05PM 37.3433 -96.9283 226° Southwest 386 444 34,000  Level Kansas City Center
03:06PM 37.2675 -97.0267 226° Southwest 390 449 34,000  Level Kansas City Center
03:07PM 37.1922 -97.1233 226° Southwest 388 447 34,000  Level Kansas City Center
03:08PM 37.1139 -97.2197 224° Southwest 390 449 34,000  Level Kansas City Center
03:09PM 37.0375 -97.3172 226° Southwest 391 450 34,000  Level Kansas City Center
03:10PM 36.9603 -97.4125 225° Southwest 391 450 34,000  Level Kansas City Center
03:11PM 36.8833 -97.5100 225° Southwest 392 451 34,000  Level Kansas City Center
03:12PM 36.7900 -97.6292 226° Southwest 396 456 34,000  Level Kansas City Center
03:13PM 36.7128 -97.7292 226° Southwest 398 458 34,000  Level Kansas City Center
03:14PM 36.6283 -97.8381 226° Southwest 400 460 34,000  Level Kansas City Center
03:15PM 36.5519 -97.9408 227° Southwest 403 464 34,000  Level Kansas City Center
03:16PM 36.4767 -98.0461 228° Southwest 403 464 34,000  Level Kansas City Center
03:17PM 36.4169 -98.1633 238° Southwest 410 472 34,000  Level Kansas City Center
03:18PM 36.4050 -98.3072 264° West 415 478 34,000  Level Kansas City Center
03:19PM 36.3925 -98.4517 264° West 419 482 34,000  Level Kansas City Center
03:20PM 36.3819 -98.5967 265° West 422 486 34,000  Level Kansas City Center
03:21PM 36.3664 -98.7694 264° West 421 484 34,000  Level Kansas City Center
03:22PM 36.3539 -98.9122 264° West 419 482 34,000  Level Kansas City Center
03:23PM 36.3422 -99.0553 264° West 420 483 34,000 240 Level Kansas City Center
03:24PM 36.3297 -99.1989 264° West 422 486 34,500 720 Climbing Kansas City Center
03:25PM 36.3172 -99.3433 264° West 424 488 35,500 720 Climbing Kansas City Center
03:26PM 36.3044 -99.4867 264° West 423 487 36,000 240 Climbing Kansas City Center
03:27PM 36.2892 -99.6581 264° West 420 483 36,000  Level Kansas City Center
03:28PM 36.2756 -99.7997 263° West 417 480 36,000  Level Kansas City Center
03:29PM 36.2625 -99.9411 264° West 415 478 36,000  Level Kansas City Center
03:30PM 36.2500 -100.0806 264° West 409 471 36,000  Level Kansas City Center
03:31PM 36.2364 -100.2175 263° West 404 465 36,000  Level Kansas City Center
03:32PM 36.2225 -100.3572 263° West 407 468 36,000  Level Kansas City Center
03:33PM 36.2111 -100.4681 263° West 406 467 36,000  Level Albuquerque Center
03:34PM 36.1978 -100.6053 263° West 403 464 36,000  Level Albuquerque Center
03:35PM 36.1853 -100.7408 264° West 400 460 36,000  Level Albuquerque Center
03:36PM 36.1708 -100.8761 263° West 398 458 36,000  Level Albuquerque Center
03:37PM 36.1569 -101.0094 263° West 392 451 36,000  Level Albuquerque Center
03:38PM 36.1425 -101.1397 262° West 385 443 36,000  Level Albuquerque Center
03:39PM 36.1275 -101.2936 263° West 386 444 36,000  Level Albuquerque Center
03:40PM 36.1144 -101.4264 263° West 390 449 36,000  Level Albuquerque Center
03:41PM 36.0994 -101.5572 262° West 388 447 36,000  Level Albuquerque Center
03:42PM 36.0856 -101.6872 263° West 385 443 36,000  Level Albuquerque Center
03:43PM 36.0686 -101.8431 262° West 385 443 36,000  Level Albuquerque Center
03:44PM 36.0539 -101.9719 262° West 383 441 36,000  Level Albuquerque Center
03:46PM 36.0389 -102.1019 262° West 384 442 36,000  Level Albuquerque Center
03:47PM 36.0244 -102.2311 262° West 383 441 36,000  Level Albuquerque Center
03:48PM 36.0092 -102.3597 262° West 382 440 36,000  Level Albuquerque Center
03:49PM 35.9956 -102.4878 263° West 379 436 36,000  Level Albuquerque Center
03:50PM 35.9767 -102.6386 261° West 374 430 36,000  Level Albuquerque Center
03:51PM 35.9619 -102.7639 262° West 371 427 36,000  Level Albuquerque Center
03:52PM 35.9472 -102.8892 262° West 370 426 36,000  Level Albuquerque Center
03:53PM 35.9344 -103.0089 263° West 368 423 36,000  Level Albuquerque Center
03:54PM 35.9156 -103.1519 261° West 362 417 36,000  Level Albuquerque Center
03:55PM 35.9000 -103.2750 261° West 361 415 36,000  Level Albuquerque Center
03:56PM 35.8858 -103.3989 262° West 362 417 36,000  Level Albuquerque Center
03:57PM 35.8697 -103.5197 261° West 358 412 36,000  Level Albuquerque Center
03:58PM 35.8550 -103.6433 262° West 361 415 36,000  Level Albuquerque Center
03:59PM 35.8394 -103.7644 261° West 358 412 36,000  Level Albuquerque Center
04:00PM 35.8236 -103.8869 261° West 359 413 36,000  Level Albuquerque Center
04:01PM 35.8056 -104.0292 261° West 359 413 36,000  Level Albuquerque Center
04:02PM 35.7900 -104.1522 261° West 362 417 36,000  Level Albuquerque Center
04:03PM 35.7733 -104.2744 260° West 362 417 36,000  Level Albuquerque Center
04:04PM 35.7578 -104.3975 261° West 362 417 36,000  Level Albuquerque Center
04:05PM 35.7403 -104.5200 260° West 362 417 36,000  Level Albuquerque Center
04:06PM 35.7244 -104.6422 261° West 361 415 36,000  Level Albuquerque Center
04:07PM 35.7056 -104.7639 259° West 361 415 36,000  Level Albuquerque Center
04:08PM 35.6828 -104.9039 259° West 357 411 36,000  Level Albuquerque Center
04:09PM 35.6675 -105.0222 261° West 352 405 36,000  Level Albuquerque Center
04:10PM 35.6492 -105.1422 259° West 354 407 36,000  Level Albuquerque Center
04:11PM 35.6286 -105.2647 258° West 361 415 36,000  Level Albuquerque Center
04:12PM 35.6111 -105.3861 260° West 359 413 36,000  Level Albuquerque Center
04:13PM 35.5911 -105.5100 259° West 367 422 36,000  Level Albuquerque Center
04:14PM 35.5722 -105.6375 260° West 374 430 36,000  Level Albuquerque Center
04:15PM 35.5467 -105.7872 258° West 380 437 36,000  Level Albuquerque Center
04:16PM 35.5281 -105.9047 259° West 376 433 36,000  Level Albuquerque Center
04:18PM 35.5108 -106.0264 260° West 367 422 36,000  Level Albuquerque Center
04:19PM 35.4894 -106.1497 258° West 368 423 36,000  Level Albuquerque Center
04:20PM 35.4717 -106.2747 260° West 372 428 36,000  Level Albuquerque Center
04:21PM 35.4525 -106.3967 259° West 369 425 36,000  Level Albuquerque Center
04:22PM 35.4275 -106.5411 258° West 364 419 36,000  Level Albuquerque Center
04:23PM 35.4075 -106.6619 259° West 365 420 36,000  Level Albuquerque Center
04:24PM 35.3872 -106.7833 258° West 365 420 36,000  Level Albuquerque Center
04:25PM 35.3619 -106.9250 258° West 371 427 36,000  Level Albuquerque Center
04:26PM 35.3428 -107.0425 259° West 369 425 36,000  Level Albuquerque Center
04:27PM 35.3233 -107.1606 259° West 370 426 36,000  Level Albuquerque Center
04:28PM 35.2994 -107.3033 258° West 384 442 36,000  Level Albuquerque Center
04:29PM 35.2764 -107.4317 258° West 388 447 36,000  Level Albuquerque Center
04:30PM 35.2514 -107.5756 258° West 391 450 36,000  Level Albuquerque Center
04:31PM 35.2300 -107.7008 258° West 393 452 36,000  Level Albuquerque Center
04:32PM 35.2042 -107.8419 257° West 384 442 36,000  Level Albuquerque Center
04:33PM 35.1844 -107.9617 259° West 378 435 36,000  Level Albuquerque Center
04:34PM 35.1597 -108.1053 258° West 382 440 36,000  Level Albuquerque Center
04:35PM 35.1375 -108.2261 257° West 382 440 36,000  Level Albuquerque Center
04:36PM 35.1161 -108.3464 258° West 379 436 36,000  Level Albuquerque Center
04:37PM 35.0903 -108.4856 257° West 376 433 36,000  Level Albuquerque Center
04:38PM 35.0700 -108.6053 258° West 376 433 36,000  Level Albuquerque Center
04:39PM 35.0436 -108.7444 257° West 377 434 36,000  Level Albuquerque Center
04:40PM 35.0217 -108.8628 257° West 375 432 36,000  Level Albuquerque Center
04:41PM 34.9964 -108.9997 257° West 371 427 36,000  Level Albuquerque Center
04:42PM 34.9742 -109.1172 257° West 370 426 36,000  Level Albuquerque Center
04:43PM 34.9331 -109.2492 249° West 374 430 36,000  Level Albuquerque Center
04:44PM 34.8931 -109.3594 246° West 372 428 36,000  Level Albuquerque Center
04:45PM 34.8456 -109.4867 246° West 369 425 36,000  Level Albuquerque Center
04:46PM 34.8050 -109.5936 245° Southwest 365 420 36,000  Level Albuquerque Center
04:47PM 34.7633 -109.7019 245° Southwest 366 421 36,000  Level Albuquerque Center
04:48PM 34.7175 -109.8314 247° West 371 427 36,000  Level Albuquerque Center
04:50PM 34.6775 -109.9392 246° West 369 425 36,000  Level Albuquerque Center
04:51PM 34.6300 -110.0681 246° West 371 427 36,000  Level Albuquerque Center
04:52PM 34.5928 -110.1839 249° West 381 438 36,000 -300 Level Albuquerque Center
04:53PM 34.5453 -110.3106 246° West 372 428 35,500 -1,560 Descending Albuquerque Center
04:55PM 34.4622 -110.5219 245° Southwest 368 423 31,200 -2,220 Descending Albuquerque Center
04:56PM 34.4153 -110.6453 245° Southwest 342 394 28,700 -2,160 Descending Albuquerque Center
04:57PM 34.3742 -110.7417 243° Southwest 327 376 26,800 -1,800 Descending Albuquerque Center
04:58PM 34.3289 -110.8283 238° Southwest 311 358 25,000 -1,800 Descending Albuquerque Center
04:59PM 34.2719 -110.9031 227° Southwest 303 349 23,200 -1,740 Descending Albuquerque Center
05:00PM 34.2153 -110.9756 227° Southwest 298 343 21,500 -1,740 Descending Albuquerque Center
05:01PM 34.1575 -111.0494 227° Southwest 300 345 19,700 -1,980 Descending Albuquerque Center
05:02PM 34.0867 -111.1425 227° Southwest 307 353 17,500 -1,920 Descending Albuquerque Center
05:03PM 34.0258 -111.2208 227° Southwest 314 361 15,800 -1,680 Descending Albuquerque Center
05:04PM 33.9664 -111.2975 227° Southwest 312 359 14,100 -1,620 Descending Albuquerque Center
05:05PM 33.9061 -111.3722 226° Southwest 310 357 12,500 -1,380 Descending Albuquerque Center
05:06PM 33.8444 -111.4372 221° Southwest 292 336 11,300 -840 Descending Albuquerque Center
05:07PM 33.7786 -111.4925 215° Southwest 287 330 10,800 -780 Descending Albuquerque Center
05:08PM 33.7167 -111.5469 216° Southwest 268 308 9,700 -960 Descending Albuquerque Center
05:09PM 33.6489 -111.6039 215° Southwest 255 293 8,900 -960 Descending Albuquerque Center
05:10PM 33.5975 -111.6483 216° Southwest 230 265 7,800 -840 Descending Albuquerque Center
05:11PM 33.5447 -111.6917 214° Southwest 229 264 7,200 -540 Descending Albuquerque Center
05:12PM 33.4919 -111.7364 215° Southwest 228 262 6,700 -600 Descending Albuquerque Center
05:13PM 33.4561 -111.7786 225° Southwest 185 213 6,000 -780 Descending Albuquerque Center
05:14PM 33.4400 -111.8275 248° West 160 184 5,100 -1,200 Descending Albuquerque Center
05:15PM 33.4436 -111.8758 275° West 147 169 3,600 -1,500 Descending Albuquerque Center
05:16PM 33.4408 -111.9361 267° West 151 174 2,100 -1,140 Descending Albuquerque Center
05:17PM 33.4403 -111.9908 269° West 153 176 1,300 -780 Descending Albuquerque Center
05:19PM 33.4343 -112.0116 270° West  Level Estimated